Airfield :
LOGIN :

Register | Disclaimer

   EN    FR    IT 

 










Legend :    VFR   Marginal VFR   IFR   Intensive IFR   Very Intensive IFR
Visi :
Ceiling :
>= 8 km
>= 3000ft
5 to 8 km
1000 to 3000 ft
1500m to 5 km
500 to 1000 ft
800 to 1500m
200 to 500 ft
< 800m
< 200 ft
Symbols :   Thunderstorms  Fog  Heavy snow  Heavy precipitations  Wind > 20 kt
SIGMETs :     Misc.  Thunderstorms  Icing  Turbulence  Mountain Waves  Volcanic Ashes







- Airport Elevation : 90 ft
- IATA code : NTE
- Download approach charts


LFRS - Nantes

CURRENT METAR :
  • 230530Z AUTO 10006KT CAVOK 13/08 Q0995 NOSIG

EXPIRED METARs :
  • 230500Z AUTO 12007KT CAVOK 13/08 Q0995 NOSIG
  • 230430Z AUTO 13007KT CAVOK 13/08 Q0995 NOSIG
  • 230400Z AUTO 13007KT CAVOK 13/07 Q0995 NOSIG
  • 230330Z AUTO 14006KT CAVOK 13/07 Q0995 NOSIG
  • 230300Z AUTO 13007KT CAVOK 13/07 Q0995 NOSIG

TAF TAF LFRS
Valid from the 23 at 06:00 until the 24 at 12:00 UTC


230500Z 2306/2412 12008KT CAVOK
TEMPO 2310/2322 -SHRA
PROB30
TEMPO 2314/2317 -TSRA BKN030 SCT050CB
BECMG 2322/2324 27010KT 4000 -RA BKN010
TEMPO 2402/2407 26020G30KT 2000 RA BKN005
BECMG 2408/2410 18010KT 9999 NSW BKN030
ATIS : +33 2 40 05 12 74
No reported NOTAMs for that airfield.



MET'MAP, your aeronautical weather chart ! - Copyright ORBIFLY December 2007 - Disclaimer

ORBIFLY MET'MAP TEAM :

Programming & Development : Alexandra Zaïnal
Concept & Development : Baudouin d'Aumeries
Co-Development & Prog : Marc-Olivier Méhu
Technical & hardware support : Manuel Goepfert

Contact : metmap@orbifly.com




SOURCES & CREDITS :

   NOAA